sensor_id;sensor_type;location;lat;lon;timestamp;temperature;humidity
76855;DHT22;66343;44.588;33.450;2023-04-15T00:01:08;14.04;50.34
76855;DHT22;66343;44.588;33.450;2023-04-15T00:03:42;14.03;50.15
76855;DHT22;66343;44.588;33.450;2023-04-15T00:06:24;14.00;50.24
76855;DHT22;66343;44.588;33.450;2023-04-15T00:08:56;14.01;49.78
76855;DHT22;66343;44.588;33.450;2023-04-15T00:11:26;14.00;49.66
76855;DHT22;66343;44.588;33.450;2023-04-15T00:13:58;14.05;49.47
76855;DHT22;66343;44.588;33.450;2023-04-15T00:16:33;14.07;49.11
76855;DHT22;66343;44.588;33.450;2023-04-15T00:19:04;14.08;48.92
76855;DHT22;66343;44.588;33.450;2023-04-15T00:21:37;14.10;48.76
76855;DHT22;66343;44.588;33.450;2023-04-15T00:24:07;14.12;48.86
76855;DHT22;66343;44.588;33.450;2023-04-15T00:26:37;14.13;48.76
76855;DHT22;66343;44.588;33.450;2023-04-15T00:29:17;14.11;48.80
76855;DHT22;66343;44.588;33.450;2023-04-15T00:31:50;14.13;48.88
76855;DHT22;66343;44.588;33.450;2023-04-15T00:34:22;14.14;48.74
76855;DHT22;66343;44.588;33.450;2023-04-15T00:36:53;14.14;48.17
76855;DHT22;66343;44.588;33.450;2023-04-15T00:39:22;14.18;47.79
76855;DHT22;66343;44.588;33.450;2023-04-15T00:41:52;14.20;48.42
76855;DHT22;66343;44.588;33.450;2023-04-15T00:44:26;14.23;47.89
76855;DHT22;66343;44.588;33.450;2023-04-15T00:47:00;14.24;47.89
76855;DHT22;66343;44.588;33.450;2023-04-15T00:49:30;14.24;47.92
76855;DHT22;66343;44.588;33.450;2023-04-15T00:52:06;14.25;47.99
76855;DHT22;66343;44.588;33.450;2023-04-15T00:54:39;14.26;47.57
76855;DHT22;66343;44.588;33.450;2023-04-15T00:57:14;14.28;47.76
76855;DHT22;66343;44.588;33.450;2023-04-15T00:59:48;14.25;47.51
76855;DHT22;66343;44.588;33.450;2023-04-15T01:02:17;14.24;48.06
76855;DHT22;66343;44.588;33.450;2023-04-15T01:04:52;14.27;47.90
76855;DHT22;66343;44.588;33.450;2023-04-15T01:07:22;14.27;47.72
76855;DHT22;66343;44.588;33.450;2023-04-15T01:09:52;14.27;47.78
76855;DHT22;66343;44.588;33.450;2023-04-15T01:12:28;14.28;47.51
76855;DHT22;66343;44.588;33.450;2023-04-15T01:15:02;14.30;46.86
76855;DHT22;66343;44.588;33.450;2023-04-15T01:17:37;14.37;46.84
76855;DHT22;66343;44.588;33.450;2023-04-15T01:20:10;14.37;46.54
76855;DHT22;66343;44.588;33.450;2023-04-15T01:22:43;14.41;46.82
76855;DHT22;66343;44.588;33.450;2023-04-15T01:25:18;14.43;46.89
76855;DHT22;66343;44.588;33.450;2023-04-15T01:27:54;14.43;46.86
76855;DHT22;66343;44.588;33.450;2023-04-15T01:30:23;14.44;46.51
76855;DHT22;66343;44.588;33.450;2023-04-15T01:32:55;14.44;46.72
76855;DHT22;66343;44.588;33.450;2023-04-15T01:35:46;14.48;46.31
76855;DHT22;66343;44.588;33.450;2023-04-15T01:38:20;14.50;46.48
76855;DHT22;66343;44.588;33.450;2023-04-15T01:40:49;14.53;46.41
76855;DHT22;66343;44.588;33.450;2023-04-15T01:43:23;14.57;45.83
76855;DHT22;66343;44.588;33.450;2023-04-15T01:45:54;14.59;46.22
76855;DHT22;66343;44.588;33.450;2023-04-15T01:48:34;14.64;45.82
76855;DHT22;66343;44.588;33.450;2023-04-15T01:51:08;14.66;45.73
76855;DHT22;66343;44.588;33.450;2023-04-15T01:53:40;14.68;45.30
76855;DHT22;66343;44.588;33.450;2023-04-15T01:56:13;14.68;45.19
76855;DHT22;66343;44.588;33.450;2023-04-15T01:58:50;14.70;44.96
76855;DHT22;66343;44.588;33.450;2023-04-15T02:01:21;14.71;45.19
76855;DHT22;66343;44.588;33.450;2023-04-15T02:03:52;14.72;45.20
76855;DHT22;66343;44.588;33.450;2023-04-15T02:06:24;14.72;45.09
76855;DHT22;66343;44.588;33.450;2023-04-15T02:09:00;14.74;45.14
76855;DHT22;66343;44.588;33.450;2023-04-15T02:11:36;14.77;44.89
76855;DHT22;66343;44.588;33.450;2023-04-15T02:14:09;14.75;44.73
76855;DHT22;66343;44.588;33.450;2023-04-15T02:16:42;14.77;45.13
76855;DHT22;66343;44.588;33.450;2023-04-15T02:19:15;14.74;45.14
76855;DHT22;66343;44.588;33.450;2023-04-15T02:21:48;14.73;45.28
76855;DHT22;66343;44.588;33.450;2023-04-15T02:24:21;14.69;44.99
76855;DHT22;66343;44.588;33.450;2023-04-15T02:26:54;14.68;45.12
76855;DHT22;66343;44.588;33.450;2023-04-15T02:29:32;14.67;44.89
76855;DHT22;66343;44.588;33.450;2023-04-15T02:32:07;14.65;44.52
76855;DHT22;66343;44.588;33.450;2023-04-15T02:34:41;14.70;44.13
76855;DHT22;66343;44.588;33.450;2023-04-15T02:37:17;14.73;43.95
76855;DHT22;66343;44.588;33.450;2023-04-15T02:39:53;14.74;44.00
76855;DHT22;66343;44.588;33.450;2023-04-15T02:42:23;14.75;44.16
76855;DHT22;66343;44.588;33.450;2023-04-15T02:44:59;14.80;43.05
76855;DHT22;66343;44.588;33.450;2023-04-15T02:47:39;14.86;43.09
76855;DHT22;66343;44.588;33.450;2023-04-15T02:50:14;14.86;43.09
76855;DHT22;66343;44.588;33.450;2023-04-15T02:52:46;14.89;43.31
76855;DHT22;66343;44.588;33.450;2023-04-15T02:55:17;14.91;43.29
76855;DHT22;66343;44.588;33.450;2023-04-15T02:57:54;14.89;43.15
76855;DHT22;66343;44.588;33.450;2023-04-15T03:00:27;14.94;42.93
76855;DHT22;66343;44.588;33.450;2023-04-15T03:03:02;14.94;43.29
76855;DHT22;66343;44.588;33.450;2023-04-15T03:05:39;14.95;43.84
76855;DHT22;66343;44.588;33.450;2023-04-15T03:08:12;14.97;44.17
76855;DHT22;66343;44.588;33.450;2023-04-15T03:10:47;14.96;44.07
76855;DHT22;66343;44.588;33.450;2023-04-15T03:13:19;14.96;43.69
76855;DHT22;66343;44.588;33.450;2023-04-15T03:15:56;15.00;43.73
76855;DHT22;66343;44.588;33.450;2023-04-15T03:18:31;15.02;43.74
76855;DHT22;66343;44.588;33.450;2023-04-15T03:21:07;14.98;44.38
76855;DHT22;66343;44.588;33.450;2023-04-15T03:23:39;14.96;44.89
76855;DHT22;66343;44.588;33.450;2023-04-15T03:26:26;14.96;45.29
76855;DHT22;66343;44.588;33.450;2023-04-15T03:29:06;15.00;45.48
76855;DHT22;66343;44.588;33.450;2023-04-15T03:31:36;15.03;45.22
76855;DHT22;66343;44.588;33.450;2023-04-15T03:34:07;15.08;44.81
76855;DHT22;66343;44.588;33.450;2023-04-15T03:36:43;15.14;44.42
76855;DHT22;66343;44.588;33.450;2023-04-15T03:39:14;15.19;44.45
76855;DHT22;66343;44.588;33.450;2023-04-15T03:41:50;15.23;44.03
76855;DHT22;66343;44.588;33.450;2023-04-15T03:44:25;15.27;43.45
76855;DHT22;66343;44.588;33.450;2023-04-15T03:46:59;15.34;43.87
76855;DHT22;66343;44.588;33.450;2023-04-15T03:49:30;15.38;43.62
76855;DHT22;66343;44.588;33.450;2023-04-15T03:52:03;15.45;43.34
76855;DHT22;66343;44.588;33.450;2023-04-15T03:54:42;15.49;43.32
76855;DHT22;66343;44.588;33.450;2023-04-15T03:57:18;15.57;43.29
76855;DHT22;66343;44.588;33.450;2023-04-15T03:59:48;15.63;43.47
76855;DHT22;66343;44.588;33.450;2023-04-15T04:02:19;15.70;42.36
76855;DHT22;66343;44.588;33.450;2023-04-15T04:04:54;15.80;42.27
76855;DHT22;66343;44.588;33.450;2023-04-15T04:07:28;15.87;41.42
76855;DHT22;66343;44.588;33.450;2023-04-15T04:09:59;15.95;41.64
76855;DHT22;66343;44.588;33.450;2023-04-15T04:12:32;16.01;41.54
76855;DHT22;66343;44.588;33.450;2023-04-15T04:15:06;16.05;40.97
76855;DHT22;66343;44.588;33.450;2023-04-15T04:17:40;16.15;40.78
76855;DHT22;66343;44.588;33.450;2023-04-15T04:20:15;16.20;41.07
76855;DHT22;66343;44.588;33.450;2023-04-15T04:22:48;16.27;40.60
76855;DHT22;66343;44.588;33.450;2023-04-15T04:25:22;16.32;40.89
76855;DHT22;66343;44.588;33.450;2023-04-15T04:27:59;16.36;40.57
76855;DHT22;66343;44.588;33.450;2023-04-15T04:30:29;16.42;40.80
76855;DHT22;66343;44.588;33.450;2023-04-15T04:33:00;16.45;40.82
76855;DHT22;66343;44.588;33.450;2023-04-15T04:35:32;16.48;41.40
76855;DHT22;66343;44.588;33.450;2023-04-15T04:38:07;16.54;41.16
76855;DHT22;66343;44.588;33.450;2023-04-15T04:40:40;16.56;40.91
76855;DHT22;66343;44.588;33.450;2023-04-15T04:43:11;16.62;41.39
76855;DHT22;66343;44.588;33.450;2023-04-15T04:45:45;16.67;41.56
76855;DHT22;66343;44.588;33.450;2023-04-15T04:48:19;16.73;41.28
76855;DHT22;66343;44.588;33.450;2023-04-15T04:50:55;16.79;40.84
76855;DHT22;66343;44.588;33.450;2023-04-15T04:53:31;16.85;40.78
76855;DHT22;66343;44.588;33.450;2023-04-15T04:56:04;16.90;40.62
76855;DHT22;66343;44.588;33.450;2023-04-15T04:58:44;16.95;40.67
76855;DHT22;66343;44.588;33.450;2023-04-15T05:01:20;17.00;40.65
76855;DHT22;66343;44.588;33.450;2023-04-15T05:03:57;17.04;40.32
76855;DHT22;66343;44.588;33.450;2023-04-15T05:06:32;17.08;40.47
76855;DHT22;66343;44.588;33.450;2023-04-15T05:09:08;17.13;40.07
76855;DHT22;66343;44.588;33.450;2023-04-15T05:11:39;17.21;40.23
76855;DHT22;66343;44.588;33.450;2023-04-15T05:14:10;17.29;40.17
76855;DHT22;66343;44.588;33.450;2023-04-15T05:16:40;17.33;40.01
76855;DHT22;66343;44.588;33.450;2023-04-15T05:19:11;17.39;39.39
76855;DHT22;66343;44.588;33.450;2023-04-15T05:21:46;17.47;39.72
76855;DHT22;66343;44.588;33.450;2023-04-15T05:24:24;17.54;39.65
76855;DHT22;66343;44.588;33.450;2023-04-15T05:26:56;17.61;39.07
76855;DHT22;66343;44.588;33.450;2023-04-15T05:29:33;17.68;39.62
76855;DHT22;66343;44.588;33.450;2023-04-15T05:32:04;17.74;39.66
76855;DHT22;66343;44.588;33.450;2023-04-15T05:34:40;17.81;39.46
76855;DHT22;66343;44.588;33.450;2023-04-15T05:37:13;17.90;39.34
76855;DHT22;66343;44.588;33.450;2023-04-15T05:39:48;17.94;38.40
76855;DHT22;66343;44.588;33.450;2023-04-15T05:42:18;18.03;38.56
76855;DHT22;66343;44.588;33.450;2023-04-15T05:44:51;18.08;38.08
